Time;durP1;ratioP1;P1;durP2;ratioP2;P2;SDS_P1;SDS_P2;PMS_P1;PMS_P2;Temp;Humidity;BMP_temperature;BMP_pressure;BME280_temperature;BME280_humidity;BME280_pressure;Samples;Min_cycle;Max_cycle;Signal;HPM_P1;HPM_P2
2022/09/15 00:01:02;;;;;;;11.00;5.90;;;;;;;15.19;71.22;98953.44;105266;1274;1798665;-81
2022/09/15 00:03:29;;;;;;;7.40;5.70;;;;;;;15.15;71.54;98947.45;107397;1276;23640;-81
2022/09/15 00:05:55;;;;;;;10.20;6.10;;;;;;;15.12;71.64;98945.26;107492;1274;22566;-81
2022/09/15 00:08:24;;;;;;;7.50;5.30;;;;;;;15.11;71.68;98943.20;107218;1276;23346;-82
2022/09/15 00:11:02;;;;;;;8.10;6.60;;;;;;;15.11;71.89;98940.52;106849;1276;26569;-81
2022/09/15 00:13:29;;;;;;;9.00;6.10;;;;;;;15.15;71.89;98943.52;107562;1276;23144;-83
2022/09/15 00:15:56;;;;;;;7.70;5.60;;;;;;;15.16;71.88;98940.83;108643;1274;23844;-81
2022/09/15 00:18:24;;;;;;;7.10;5.60;;;;;;;15.14;71.88;98936.32;108095;1276;22592;-80
2022/09/15 00:20:50;;;;;;;7.80;6.00;;;;;;;15.15;71.94;98936.98;107586;1276;22921;-81
2022/09/15 00:23:18;;;;;;;6.80;5.60;;;;;;;15.12;72.04;98935.52;106818;1276;24389;-78
2022/09/15 00:25:47;;;;;;;11.50;6.00;;;;;;;15.11;72.06;98935.73;105961;1274;25460;-77
2022/09/15 00:28:20;;;;;;;8.70;5.70;;;;;;;15.10;72.18;98930.65;106044;1276;22712;-77
2022/09/15 00:30:49;;;;;;;9.00;6.00;;;;;;;15.07;72.22;98934.90;106045;1274;24237;-80
2022/09/15 00:33:17;;;;;;;9.60;5.80;;;;;;;15.01;72.30;98939.79;106364;1276;25408;-83
2022/09/15 00:35:46;;;;;;;8.70;6.00;;;;;;;14.96;72.63;98938.77;106152;1274;22629;-86
2022/09/15 00:38:14;;;;;;;7.90;5.90;;;;;;;14.97;72.79;98948.15;106066;1276;22553;-80
2022/09/15 00:40:50;;;;;;;8.40;5.90;;;;;;;14.99;72.83;98956.73;106021;1275;24202;-82
2022/09/15 00:43:21;;;;;;;10.60;6.00;;;;;;;15.01;73.18;98956.98;106377;1276;25315;-79
2022/09/15 00:45:48;;;;;;;9.20;6.40;;;;;;;15.01;73.10;98952.55;106637;1276;22573;-77
2022/09/15 00:48:19;;;;;;;8.40;6.00;;;;;;;14.98;72.99;98951.80;106519;1276;25364;-81
2022/09/15 00:50:54;;;;;;;8.90;6.20;;;;;;;15.01;73.18;98952.75;106032;1275;22570;-78
2022/09/15 00:53:22;;;;;;;9.30;5.70;;;;;;;15.05;73.25;98956.80;105256;1284;22579;-80
2022/09/15 00:55:50;;;;;;;10.70;6.20;;;;;;;15.04;73.25;98956.86;105428;1281;22655;-80
2022/09/15 00:58:31;;;;;;;8.90;5.90;;;;;;;15.04;73.33;98958.98;105367;1282;25365;-79
2022/09/15 01:01:00;;;;;;;8.60;5.90;;;;;;;15.03;73.32;98945.17;105408;1282;24372;-80
2022/09/15 01:03:30;;;;;;;7.00;5.60;;;;;;;15.02;73.37;98937.80;105474;1281;23115;-79
2022/09/15 01:06:09;;;;;;;10.20;6.30;;;;;;;15.03;73.39;98929.77;105169;1284;22720;-78
2022/09/15 01:08:51;;;;;;;9.30;5.80;;;;;;;15.05;73.30;98928.05;105242;1284;23092;-79
2022/09/15 01:11:20;;;;;;;8.20;5.30;;;;;;;15.04;73.39;98928.66;105396;1276;22577;-80
2022/09/15 01:13:46;;;;;;;6.60;5.40;;;;;;;15.05;73.47;98926.67;106043;1276;22549;-79
2022/09/15 01:16:25;;;;;;;9.90;6.10;;;;;;;15.02;73.32;98921.80;105911;1276;23062;-79
2022/09/15 01:19:01;;;;;;;7.80;5.50;;;;;;;15.02;73.41;98924.32;105980;1276;24445;-77
2022/09/15 01:21:54;;;;;;;9.90;6.00;;;;;;;14.98;73.66;98923.41;106008;1276;23654;-81
2022/09/15 01:24:41;;;;;;;8.60;5.90;;;;;;;14.98;73.60;98923.48;105855;1276;22534;-82
2022/09/15 01:27:11;;;;;;;8.20;5.70;;;;;;;14.99;73.98;98920.23;105947;1276;23932;-78
2022/09/15 01:30:24;;;;;;;11.20;6.20;;;;;;;14.99;74.01;98917.18;105978;1276;22573;-79
2022/09/15 01:33:02;;;;;;;11.00;5.80;;;;;;;14.98;73.96;98908.72;105967;1276;22652;-80
2022/09/15 01:35:52;;;;;;;8.50;6.20;;;;;;;14.97;74.02;98910.39;105894;1276;23646;-79
2022/09/15 01:38:39;;;;;;;10.80;6.90;;;;;;;14.94;74.21;98905.05;105976;1276;25400;-82
2022/09/15 01:41:17;;;;;;;7.80;6.10;;;;;;;14.92;74.41;98898.73;106055;1273;26506;-84
2022/09/15 01:44:00;;;;;;;9.80;6.50;;;;;;;14.93;74.48;98900.13;106039;1274;22559;-84
2022/09/15 01:46:33;;;;;;;9.80;6.00;;;;;;;14.92;74.68;98898.92;105296;1282;24459;-82
2022/09/15 01:49:03;;;;;;;9.60;7.10;;;;;;;14.93;74.82;98898.17;105548;1281;23945;-82
2022/09/15 01:51:32;;;;;;;6.80;5.70;;;;;;;14.96;74.84;98900.85;105515;1282;24448;-84
2022/09/15 01:54:02;;;;;;;9.90;6.80;;;;;;;14.95;74.77;98893.27;105653;1281;25327;-82
2022/09/15 01:56:30;;;;;;;9.40;6.80;;;;;;;14.96;74.88;98894.65;105374;1281;22603;-83
2022/09/15 01:58:57;;;;;;;7.80;6.40;;;;;;;14.95;74.91;98898.41;105522;1281;22716;-83
2022/09/15 02:01:48;;;;;;;11.60;6.60;;;;;;;14.98;74.98;98899.50;105425;1282;26708;-83
2022/09/15 02:04:28;;;;;;;8.80;7.10;;;;;;;14.99;75.13;98898.42;105485;1279;22717;-80
2022/09/15 02:07:11;;;;;;;9.80;7.90;;;;;;;14.92;75.22;98894.33;106054;1274;22852;-83
2022/09/15 02:10:25;;;;;;;7.80;6.50;;;;;;;14.91;75.18;98891.58;106016;1275;22551;-84
2022/09/15 02:13:15;;;;;;;11.80;7.10;;;;;;;14.88;75.40;98885.70;106024;1276;22554;-77
2022/09/15 02:15:52;;;;;;;11.70;6.80;;;;;;;14.88;75.55;98886.91;105823;1279;22680;-78
2022/09/15 02:18:27;;;;;;;8.80;7.10;;;;;;;14.89;75.75;98886.83;105720;1279;24232;-78
2022/09/15 02:21:05;;;;;;;9.60;7.20;;;;;;;14.93;75.94;98883.98;105706;1279;22854;-79
2022/09/15 02:23:39;;;;;;;10.30;7.10;;;;;;;14.94;76.04;98886.79;105760;1279;23509;-82
2022/09/15 02:26:12;;;;;;;9.00;7.10;;;;;;;14.91;75.82;98880.92;105694;1279;23059;-76
2022/09/15 02:28:42;;;;;;;10.30;7.40;;;;;;;14.89;75.83;98877.98;105440;1279;24445;-77
2022/09/15 02:31:13;;;;;;;10.30;8.10;;;;;;;14.87;76.26;98874.59;105568;1279;22595;-81
2022/09/15 02:33:47;;;;;;;11.50;7.40;;;;;;;14.85;76.16;98872.13;105545;1276;23211;-79
2022/09/15 02:36:18;;;;;;;8.10;7.30;;;;;;;14.84;76.34;98869.23;105951;1274;24269;-79
2022/09/15 02:38:54;;;;;;;8.70;7.40;;;;;;;14.84;76.53;98869.55;106071;1275;22880;-79
2022/09/15 02:41:22;;;;;;;8.20;6.60;;;;;;;14.86;76.57;98867.87;105958;1276;23309;-80
2022/09/15 02:43:49;;;;;;;10.90;7.60;;;;;;;14.89;76.72;98869.00;105937;1275;24398;-86
2022/09/15 02:46:19;;;;;;;8.60;7.60;;;;;;;14.91;76.72;98869.05;105965;1276;25246;-85
2022/09/15 02:48:46;;;;;;;14.10;7.30;;;;;;;14.90;76.63;98871.55;106170;1276;22613;-93
2022/09/15 02:51:15;;;;;;;12.00;6.70;;;;;;;14.89;76.55;98868.64;106979;1275;22531;-91
2022/09/15 02:53:44;;;;;;;10.10;7.40;;;;;;;14.86;76.60;98875.84;106379;1276;22541;-90
2022/09/15 02:56:11;;;;;;;10.70;7.50;;;;;;;14.85;76.68;98873.61;106240;1274;22561;-88
2022/09/15 02:58:46;;;;;;;11.60;8.10;;;;;;;14.81;76.87;98875.20;107100;1263;22998;31
2022/09/15 03:01:14;;;;;;;11.30;7.30;;;;;;;14.75;76.94;98869.98;106124;1273;25366;-88
2022/09/15 03:03:45;;;;;;;15.00;7.80;;;;;;;14.71;77.30;98869.14;106779;1273;26511;-81
2022/09/15 03:06:16;;;;;;;7.70;7.00;;;;;;;14.71;77.34;98868.58;106049;1273;25345;-84
2022/09/15 03:08:48;;;;;;;10.80;7.20;;;;;;;14.71;77.46;98869.81;106112;1274;24223;-81
2022/09/15 03:11:16;;;;;;;10.00;7.20;;;;;;;14.72;77.46;98866.93;106030;1276;22551;-83
2022/09/15 03:13:43;;;;;;;9.60;7.60;;;;;;;14.71;77.57;98866.11;106105;1273;25526;-81
2022/09/15 03:16:12;;;;;;;8.50;7.60;;;;;;;14.68;77.59;98861.13;105986;1274;22580;-81
2022/09/15 03:18:40;;;;;;;10.50;7.00;;;;;;;14.67;77.65;98856.59;106121;1275;22585;-81
2022/09/15 03:21:10;;;;;;;13.00;8.40;;;;;;;14.68;77.73;98856.48;105823;1276;24415;-79
2022/09/15 03:23:37;;;;;;;9.20;8.30;;;;;;;14.69;77.78;98850.64;106047;1274;23476;-81
2022/09/15 03:26:04;;;;;;;10.00;8.10;;;;;;;14.65;77.65;98848.36;105968;1275;24287;-81
2022/09/15 03:28:31;;;;;;;10.40;8.40;;;;;;;14.60;77.75;98852.64;105970;1275;22529;-81
2022/09/15 03:30:58;;;;;;;11.60;8.00;;;;;;;14.58;77.92;98852.60;105578;1279;22563;-82
2022/09/15 03:33:25;;;;;;;10.60;8.00;;;;;;;14.57;78.18;98853.34;106070;1279;22648;-94
2022/09/15 03:35:53;;;;;;;9.50;8.20;;;;;;;14.55;78.08;98854.13;105998;1279;24371;-82
2022/09/15 03:38:20;;;;;;;10.60;9.40;;;;;;;14.59;78.24;98856.59;105170;1279;22561;-87
2022/09/15 03:41:01;;;;;;;15.90;8.70;;;;;;;14.59;78.25;98855.36;105440;1279;24231;-84
2022/09/15 03:43:30;;;;;;;10.90;8.30;;;;;;;14.57;78.42;98856.02;105638;1279;24267;-85
2022/09/15 03:45:57;;;;;;;11.40;8.10;;;;;;;14.55;78.31;98856.80;105809;1279;22545;-84
2022/09/15 03:48:26;;;;;;;10.10;8.50;;;;;;;14.55;78.17;98857.55;105442;1278;22537;-85
2022/09/15 03:50:53;;;;;;;12.10;8.60;;;;;;;14.55;78.13;98858.04;106361;1274;24077;-85
2022/09/15 03:53:20;;;;;;;12.20;7.50;;;;;;;14.52;78.05;98859.29;106124;1275;24341;-87
2022/09/15 03:55:48;;;;;;;10.20;8.00;;;;;;;14.51;78.28;98862.85;106163;1274;23069;-93
2022/09/15 03:58:17;;;;;;;9.00;7.70;;;;;;;14.51;78.07;98860.73;106133;1275;24257;-75
2022/09/15 04:00:45;;;;;;;16.90;7.80;;;;;;;14.57;78.34;98861.11;106409;1276;22705;-75
2022/09/15 04:03:13;;;;;;;11.00;8.50;;;;;;;14.62;78.29;98863.71;106444;1276;22522;-77
2022/09/15 04:05:40;;;;;;;12.60;7.60;;;;;;;14.65;77.87;98863.93;106461;1274;24258;-80
2022/09/15 04:08:11;;;;;;;12.50;8.30;;;;;;;14.64;77.58;98864.00;106466;1276;26577;-78
2022/09/15 04:10:40;;;;;;;10.60;7.50;;;;;;;14.62;77.53;98865.13;106741;1274;22704;-79
2022/09/15 04:13:07;;;;;;;9.60;7.20;;;;;;;14.59;77.28;98870.08;106362;1274;22554;-76
2022/09/15 04:15:34;;;;;;;10.80;8.00;;;;;;;14.58;77.35;98870.66;106047;1274;24290;-79
2022/09/15 04:18:03;;;;;;;11.10;8.80;;;;;;;14.59;77.45;98865.98;106177;1274;22580;-79
2022/09/15 04:20:31;;;;;;;10.30;7.90;;;;;;;14.55;77.27;98866.02;105865;1276;22544;-78
2022/09/15 04:22:57;;;;;;;10.20;7.50;;;;;;;14.53;77.37;98869.13;106114;1274;22553;-83
2022/09/15 04:25:26;;;;;;;10.80;8.20;;;;;;;14.54;77.38;98861.84;105978;1276;23974;-81
2022/09/15 04:27:55;;;;;;;14.10;8.20;;;;;;;14.56;77.40;98857.11;106169;1273;25382;-80
2022/09/15 04:30:22;;;;;;;11.80;8.20;;;;;;;14.55;77.24;98859.63;106015;1276;24233;-77
2022/09/15 04:32:50;;;;;;;10.80;7.90;;;;;;;14.53;76.97;98855.32;106089;1274;22609;-79
2022/09/15 04:35:17;;;;;;;9.70;6.90;;;;;;;14.51;77.15;98848.67;106030;1274;22537;-82
2022/09/15 04:37:44;;;;;;;10.50;7.40;;;;;;;14.49;76.99;98842.77;106028;1276;23309;-80
2022/09/15 04:40:11;;;;;;;10.70;7.60;;;;;;;14.48;76.80;98845.27;106109;1274;25331;-80
2022/09/15 04:42:38;;;;;;;11.60;7.40;;;;;;;14.45;77.01;98842.59;106092;1274;22536;-80
2022/09/15 04:45:06;;;;;;;12.80;7.40;;;;;;;14.43;76.96;98840.08;106257;1275;22711;-79
2022/09/15 04:47:33;;;;;;;12.30;8.20;;;;;;;14.40;76.92;98845.00;106240;1274;23053;-85
2022/09/15 04:50:00;;;;;;;8.20;6.50;;;;;;;14.34;76.80;98837.10;106139;1274;25471;-79
2022/09/15 04:52:27;;;;;;;12.00;7.50;;;;;;;14.40;77.00;98843.05;105854;1276;24231;-78
2022/09/15 04:54:53;;;;;;;11.20;7.50;;;;;;;14.37;76.93;98840.19;105980;1275;24855;-76
2022/09/15 04:57:20;;;;;;;13.60;7.50;;;;;;;14.37;76.89;98843.90;106073;1277;24429;-86
2022/09/15 04:59:47;;;;;;;10.70;7.50;;;;;;;14.38;76.78;98846.34;106083;1276;23483;-86
2022/09/15 05:02:14;;;;;;;9.90;7.00;;;;;;;14.34;76.63;98843.48;105672;1277;22662;-76
2022/09/15 05:04:41;;;;;;;9.60;7.20;;;;;;;14.35;76.97;98845.56;105890;1275;22551;-77
2022/09/15 05:07:08;;;;;;;12.20;7.10;;;;;;;14.41;76.97;98848.14;105906;1276;22552;-79
2022/09/15 05:09:35;;;;;;;10.80;7.50;;;;;;;14.42;76.96;98849.52;105911;1276;22876;-77
2022/09/15 05:12:02;;;;;;;9.90;7.20;;;;;;;14.42;76.84;98853.38;105610;1276;25221;-78
2022/09/15 05:14:30;;;;;;;9.30;7.10;;;;;;;14.41;76.73;98860.16;105927;1274;22641;-85
2022/09/15 05:16:56;;;;;;;9.50;7.00;;;;;;;14.40;76.65;98861.65;106005;1273;24239;-78
2022/09/15 05:19:23;;;;;;;11.50;7.40;;;;;;;14.34;76.57;98856.75;105388;1281;25933;-78
2022/09/15 05:21:50;;;;;;;12.90;7.20;;;;;;;14.33;76.76;98850.44;105601;1279;22567;-85
2022/09/15 05:24:17;;;;;;;11.80;7.00;;;;;;;14.33;76.49;98852.38;105672;1280;22541;-79
2022/09/15 05:26:44;;;;;;;14.80;8.60;;;;;;;14.31;76.66;98860.43;105437;1279;22553;-78
2022/09/15 05:33:29;;;;;;;12.10;6.10;;;;;;;14.23;76.45;98863.67;105542;1278;25379;-74
2022/09/15 05:35:59;;;;;;;11.70;6.60;;;;;;;14.19;76.24;98862.83;105628;1279;25331;-73
2022/09/15 05:38:29;;;;;;;10.30;6.70;;;;;;;14.18;76.32;98858.80;105829;1274;22560;-75
2022/09/15 05:41:07;;;;;;;11.40;6.20;;;;;;;14.22;76.35;98862.46;106043;1273;24507;-75
2022/09/15 05:43:36;;;;;;;11.60;7.20;;;;;;;14.26;76.36;98866.54;105971;1273;25105;-76
2022/09/15 05:46:05;;;;;;;11.80;6.60;;;;;;;14.30;76.06;98866.36;106060;1273;22863;-74
2022/09/15 05:48:33;;;;;;;13.40;6.70;;;;;;;14.31;75.75;98865.58;106053;1274;25244;-75
2022/09/15 05:51:00;;;;;;;12.90;6.20;;;;;;;14.31;75.47;98867.17;106101;1273;22566;-78
2022/09/15 05:53:27;;;;;;;12.30;6.50;;;;;;;14.35;75.46;98871.26;105510;1281;22550;-77
2022/09/15 05:56:00;;;;;;;12.40;6.80;;;;;;;14.32;75.09;98870.52;105776;1281;24273;-76
2022/09/15 05:58:26;;;;;;;11.50;6.10;;;;;;;14.34;75.15;98874.14;105741;1281;24298;-74
2022/09/15 06:00:54;;;;;;;10.40;5.40;;;;;;;14.34;74.82;98863.84;105673;1281;25778;-74
2022/09/15 06:03:22;;;;;;;10.00;5.50;;;;;;;14.36;74.64;98872.41;105680;1281;22605;-75
2022/09/15 06:06:01;;;;;;;11.70;6.10;;;;;;;14.39;74.37;98871.04;105664;1281;22695;-75
2022/09/15 06:08:34;;;;;;;13.90;6.30;;;;;;;14.43;74.37;98869.42;105554;1281;25429;-75
2022/09/15 06:11:08;;;;;;;17.30;6.30;;;;;;;14.47;73.82;98874.38;105737;1274;25250;-74
2022/09/15 06:13:39;;;;;;;13.20;6.20;;;;;;;14.48;73.64;98871.16;105939;1276;22667;-72
2022/09/15 06:16:11;;;;;;;12.80;6.20;;;;;;;14.48;73.47;98871.33;106067;1273;24272;-76
2022/09/15 06:18:39;;;;;;;15.40;5.60;;;;;;;14.53;73.48;98878.49;105945;1274;22587;-77
2022/09/15 06:21:12;;;;;;;13.80;5.30;;;;;;;14.58;73.03;98875.59;106036;1273;25409;-73
2022/09/15 06:23:40;;;;;;;15.00;5.60;;;;;;;14.63;72.92;98877.52;106076;1273;25242;-77
2022/09/15 06:26:36;;;;;;;12.50;5.60;;;;;;;14.69;72.87;98879.11;105959;1275;22573;-77
2022/09/15 06:29:04;;;;;;;15.20;5.40;;;;;;;14.75;72.51;98872.45;106026;1274;24219;-73
2022/09/15 06:31:32;;;;;;;19.40;5.50;;;;;;;14.81;72.27;98878.55;106094;1273;25337;-77
2022/09/15 06:34:00;;;;;;;14.30;5.70;;;;;;;14.86;72.29;98875.30;106022;1273;23249;-75
2022/09/15 06:36:29;;;;;;;12.20;5.30;;;;;;;14.90;71.84;98878.80;106064;1276;24225;-76
2022/09/15 06:38:57;;;;;;;12.20;5.20;;;;;;;14.92;71.38;98882.47;106041;1277;24768;-74
2022/09/15 06:41:24;;;;;;;10.30;4.70;;;;;;;14.92;71.15;98880.48;106006;1277;22679;-77
2022/09/15 06:43:51;;;;;;;18.10;6.10;;;;;;;14.92;71.00;98879.62;106015;1274;22574;-78
2022/09/15 06:46:22;;;;;;;12.70;5.30;;;;;;;14.91;70.91;98879.29;106022;1273;24268;-77
2022/09/15 06:48:50;;;;;;;16.10;5.20;;;;;;;14.88;70.52;98883.73;106025;1276;22601;-79
2022/09/15 06:51:21;;;;;;;12.00;5.30;;;;;;;14.88;70.82;98884.98;106113;1275;26506;-75
2022/09/15 06:53:48;;;;;;;17.60;6.10;;;;;;;14.92;70.55;98890.23;105977;1276;25364;-72
2022/09/15 06:56:18;;;;;;;16.70;5.30;;;;;;;14.91;70.17;98889.56;106096;1275;22592;-75
2022/09/15 06:58:48;;;;;;;17.80;6.00;;;;;;;14.91;70.13;98893.14;105964;1276;22608;-79
2022/09/15 07:01:28;;;;;;;14.10;4.50;;;;;;;14.89;70.01;98892.55;106151;1275;22559;-74
2022/09/15 07:03:58;;;;;;;15.10;5.00;;;;;;;14.91;69.97;98903.06;106077;1274;22553;-76
2022/09/15 07:06:29;;;;;;;21.10;5.50;;;;;;;14.96;70.02;98901.21;106089;1275;23096;-77
2022/09/15 07:08:57;;;;;;;12.20;4.70;;;;;;;15.00;69.75;98903.16;106111;1274;23467;-75
2022/09/15 07:11:24;;;;;;;18.20;5.30;;;;;;;14.99;69.58;98897.17;105958;1274;22781;-78
2022/09/15 07:13:51;;;;;;;18.80;5.40;;;;;;;14.98;69.19;98893.13;106064;1274;25347;-77
2022/09/15 07:16:19;;;;;;;18.70;5.70;;;;;;;14.97;69.31;98893.89;105999;1275;22626;-76
2022/09/15 07:18:47;;;;;;;16.20;4.90;;;;;;;15.03;69.61;98896.98;106010;1275;22775;-74
2022/09/15 07:21:17;;;;;;;12.60;5.00;;;;;;;15.09;69.36;98900.75;106056;1274;23412;-75
2022/09/15 07:23:45;;;;;;;19.50;4.80;;;;;;;15.13;69.06;98905.49;105830;1275;24348;-76
2022/09/15 07:26:17;;;;;;;14.00;4.70;;;;;;;15.17;68.66;98902.98;106043;1275;24296;-77
2022/09/15 07:28:48;;;;;;;14.00;4.00;;;;;;;15.20;68.45;98909.36;105695;1279;22558;-76
2022/09/15 07:31:18;;;;;;;20.20;4.50;;;;;;;15.24;68.68;98911.50;105561;1277;22658;-74
2022/09/15 07:33:46;;;;;;;12.70;4.30;;;;;;;15.25;68.38;98902.93;105421;1278;25249;-76
2022/09/15 07:36:13;;;;;;;17.10;4.60;;;;;;;15.28;68.07;98905.77;105729;1279;25338;-76
2022/09/15 07:38:43;;;;;;;15.50;4.70;;;;;;;15.31;68.12;98909.54;105444;1281;22680;-75
2022/09/15 07:41:17;;;;;;;14.30;4.50;;;;;;;15.33;67.99;98911.70;105461;1281;24508;-74
2022/09/15 07:44:01;;;;;;;14.40;4.90;;;;;;;15.34;67.87;98917.68;105686;1278;24239;-76
2022/09/15 07:46:32;;;;;;;18.30;4.20;;;;;;;15.40;67.74;98917.60;105229;1282;22572;-74
2022/09/15 07:48:59;;;;;;;13.10;3.90;;;;;;;15.51;67.68;98920.73;105435;1281;25382;-75
2022/09/15 07:51:26;;;;;;;13.90;3.20;;;;;;;15.62;67.48;98921.21;105478;1279;22592;-76
2022/09/15 07:53:53;;;;;;;12.60;4.00;;;;;;;15.70;66.90;98921.86;105793;1279;28360;-76
2022/09/15 07:56:20;;;;;;;12.10;3.90;;;;;;;15.74;66.96;98922.34;105841;1279;22700;-78
2022/09/15 07:58:48;;;;;;;9.10;3.50;;;;;;;15.84;66.39;98927.84;105847;1280;26859;-74
2022/09/15 08:01:17;;;;;;;15.40;3.70;;;;;;;15.94;66.21;98931.94;106342;1281;26634;-76
2022/09/15 08:03:49;;;;;;;10.00;3.70;;;;;;;16.01;65.68;98933.56;106420;1279;24221;-77
2022/09/15 08:06:20;;;;;;;9.30;3.00;;;;;;;16.09;65.45;98933.80;106443;1274;22801;-73
2022/09/15 08:08:49;;;;;;;10.00;3.00;;;;;;;16.20;65.35;98935.16;106322;1275;25376;-75
2022/09/15 08:11:18;;;;;;;7.80;2.60;;;;;;;16.30;64.92;98924.83;106364;1276;22610;-74
2022/09/15 08:13:49;;;;;;;7.00;2.90;;;;;;;16.37;63.48;98922.86;106362;1274;24231;-76
2022/09/15 08:16:22;;;;;;;6.40;2.20;;;;;;;16.41;63.58;98923.14;106522;1275;22554;-76
2022/09/15 08:18:51;;;;;;;7.80;2.70;;;;;;;16.51;63.68;98922.94;106080;1275;26627;-76
2022/09/15 08:21:20;;;;;;;6.10;3.00;;;;;;;16.64;63.50;98919.36;106289;1275;25486;-75
2022/09/15 08:23:52;;;;;;;4.90;1.90;;;;;;;16.75;62.79;98922.30;106294;1274;22888;-76
2022/09/15 08:26:19;;;;;;;6.70;2.40;;;;;;;16.81;62.06;98922.65;106170;1274;24260;-76
2022/09/15 08:28:47;;;;;;;5.90;2.20;;;;;;;16.87;61.80;98924.63;105986;1274;25299;-76
2022/09/15 08:31:14;;;;;;;6.10;2.50;;;;;;;16.90;60.84;98929.47;105950;1274;22551;-74
2022/09/15 08:33:45;;;;;;;4.50;2.50;;;;;;;16.96;60.67;98929.27;105917;1274;22871;-77
2022/09/15 08:36:12;;;;;;;4.60;2.20;;;;;;;17.04;60.06;98930.91;106641;1274;26696;-72
2022/09/15 08:38:42;;;;;;;5.30;2.50;;;;;;;17.09;59.51;98933.48;107172;1275;24225;-71
2022/09/15 08:41:33;;;;;;;7.30;2.30;;;;;;;17.13;59.53;98930.77;106855;1274;24230;-75
2022/09/15 08:44:39;;;;;;;5.20;2.70;;;;;;;17.23;59.71;98930.19;106060;1274;22686;-73
2022/09/15 08:47:18;;;;;;;5.30;2.30;;;;;;;17.39;59.37;98924.98;106060;1275;23027;-75
2022/09/15 08:50:14;;;;;;;3.50;1.90;;;;;;;17.49;58.55;98919.77;105987;1274;22630;-70
2022/09/15 08:53:05;;;;;;;5.10;2.10;;;;;;;17.52;58.09;98925.45;106005;1274;24513;-71
2022/09/15 08:55:47;;;;;;;4.10;2.30;;;;;;;17.61;58.07;98917.94;106146;1274;25595;-74
2022/09/15 08:58:20;;;;;;;3.60;1.90;;;;;;;17.69;57.79;98915.12;106095;1274;23189;-78
2022/09/15 09:01:03;;;;;;;3.70;1.90;;;;;;;17.83;57.57;98918.73;106117;1274;22561;-75
2022/09/15 09:03:58;;;;;;;6.60;2.20;;;;;;;17.90;55.85;98920.40;106003;1274;23214;-76
2022/09/15 09:06:34;;;;;;;4.00;2.10;;;;;;;18.01;56.20;98924.21;106200;1274;25491;-76
2022/09/15 09:09:20;;;;;;;;;;;;;;;18.14;56.16;98924.83;106163;1274;22516;-76
2022/09/15 09:11:59;;;;;;;5.00;2.20;;;;;;;18.28;56.07;98923.23;105957;1275;25301;-75
2022/09/15 09:14:47;;;;;;;5.00;2.10;;;;;;;18.47;55.45;98923.63;105965;1274;22540;-75
2022/09/15 09:17:32;;;;;;;3.70;1.60;;;;;;;18.52;54.58;98931.30;106017;1274;22575;-74
2022/09/15 09:20:11;;;;;;;2.40;1.50;;;;;;;18.60;54.27;98925.62;105929;1274;22873;-75
2022/09/15 09:22:42;;;;;;;7.60;1.80;;;;;;;18.71;54.65;98926.31;106012;1274;22689;-75
2022/09/15 09:25:13;;;;;;;4.50;1.90;;;;;;;18.80;54.38;98925.36;105724;1274;25770;-75
2022/09/15 09:27:56;;;;;;;3.40;1.70;;;;;;;18.90;53.82;98921.51;105916;1274;22535;-76
2022/09/15 09:30:28;;;;;;;4.80;2.00;;;;;;;18.88;53.10;98924.65;105815;1275;25357;-75
2022/09/15 09:32:58;;;;;;;3.20;1.80;;;;;;;18.96;52.98;98927.20;105958;1274;24501;-76
2022/09/15 09:35:31;;;;;;;2.10;1.40;;;;;;;19.07;53.19;98924.82;106081;1274;22811;-75
2022/09/15 09:37:59;;;;;;;2.40;1.70;;;;;;;19.27;52.77;98924.56;105933;1274;24266;-75
2022/09/15 09:40:26;;;;;;;3.10;1.70;;;;;;;19.33;51.80;98921.35;105993;1275;22789;-75
2022/09/15 09:42:53;;;;;;;4.70;1.80;;;;;;;19.39;51.15;98928.40;105909;1274;25258;-74
2022/09/15 09:45:21;;;;;;;3.70;1.70;;;;;;;19.39;50.14;98924.67;106011;1274;22556;-76
2022/09/15 09:47:49;;;;;;;3.20;1.50;;;;;;;19.38;50.03;98920.27;105869;1277;25828;-77
2022/09/15 09:50:34;;;;;;;2.90;1.40;;;;;;;19.33;50.23;98914.39;106048;1274;24383;-75
2022/09/15 09:53:23;;;;;;;2.80;1.40;;;;;;;19.10;49.89;98913.79;105989;1274;24263;-74
2022/09/15 09:55:52;;;;;;;3.50;1.70;;;;;;;18.86;50.54;98916.23;105989;1274;24262;-75
2022/09/15 09:58:21;;;;;;;4.10;2.10;;;;;;;18.67;51.24;98924.64;106045;1274;23964;-74
2022/09/15 10:00:49;;;;;;;3.20;1.40;;;;;;;18.54;51.58;98922.24;105983;1274;24637;-76
2022/09/15 10:03:24;;;;;;;2.70;1.40;;;;;;;18.51;51.92;98919.23;106010;1274;25440;-74
2022/09/15 10:06:03;;;;;;;2.90;1.60;;;;;;;18.50;52.36;98913.43;105885;1275;22544;-74
2022/09/15 10:08:30;;;;;;;3.20;1.60;;;;;;;18.54;52.66;98911.41;105987;1274;24341;-74
2022/09/15 10:11:05;;;;;;;5.00;1.80;;;;;;;18.57;52.50;98918.52;105959;1274;22759;-75
2022/09/15 10:13:34;;;;;;;2.60;1.80;;;;;;;18.54;52.50;98914.82;106050;1274;22574;-75
2022/09/15 10:16:04;;;;;;;2.60;1.70;;;;;;;18.46;52.23;98912.44;105963;1277;22628;-74
2022/09/15 10:18:37;;;;;;;3.30;1.90;;;;;;;18.42;52.61;98907.36;106181;1274;25250;-75
2022/09/15 10:21:08;;;;;;;2.60;1.40;;;;;;;18.77;52.52;98906.84;106145;1274;22610;-74
2022/09/15 10:23:35;;;;;;;4.60;1.70;;;;;;;19.12;52.36;98904.02;106004;1274;24402;-73
2022/09/15 10:26:14;;;;;;;4.40;1.70;;;;;;;19.37;51.97;98900.33;105966;1274;24334;-75
2022/09/15 10:28:42;;;;;;;3.60;1.70;;;;;;;19.37;50.89;98910.33;105941;1274;23978;-76
2022/09/15 10:31:27;;;;;;;3.50;1.50;;;;;;;19.21;51.04;98906.10;106113;1274;22549;-74
2022/09/15 10:33:54;;;;;;;5.10;1.70;;;;;;;19.11;51.20;98913.52;106011;1274;25371;-75
2022/09/15 10:36:30;;;;;;;2.90;1.40;;;;;;;18.97;50.99;98908.53;105849;1274;22767;-73
2022/09/15 10:39:12;;;;;;;;;;;;;;;18.79;50.89;98917.95;105875;1274;24382;-73
2022/09/15 10:42:05;;;;;;;2.50;1.50;;;;;;;18.75;50.87;98926.62;106120;1274;23789;-75
2022/09/15 10:44:47;;;;;;;3.40;1.80;;;;;;;18.68;51.23;98921.86;105859;1274;22590;-75
2022/09/15 10:47:45;;;;;;;3.40;1.90;;;;;;;18.64;51.07;98914.68;106028;1274;22723;-75
2022/09/15 10:50:20;;;;;;;4.20;1.90;;;;;;;18.64;51.51;98907.02;106081;1274;22735;-82
2022/09/15 10:52:52;;;;;;;3.90;1.80;;;;;;;18.81;51.98;98905.02;106052;1274;22559;-74
2022/09/15 10:55:44;;;;;;;4.00;2.30;;;;;;;18.85;51.24;98904.36;105564;1281;22851;-71
2022/09/15 10:59:09;;;;;;;4.10;1.90;;;;;;;18.85;51.46;98918.66;105638;1279;22594;-75
2022/09/15 11:01:48;;;;;;;;;;;;;;;18.76;51.05;98927.10;105453;1282;22551;-74
2022/09/15 11:04:30;;;;;;;3.80;1.90;;;;;;;18.68;51.25;98929.73;105704;1279;25289;-75
2022/09/15 11:07:11;;;;;;;4.00;2.10;;;;;;;18.72;51.02;98931.61;105795;1279;24431;-74
2022/09/15 11:09:40;;;;;;;4.70;1.80;;;;;;;18.73;51.15;98923.34;105819;1279;22655;-76
2022/09/15 11:12:15;;;;;;;4.20;1.70;;;;;;;18.80;50.92;98917.55;105769;1279;23296;-74
2022/09/15 11:15:18;;;;;;;5.70;3.30;;;;;;;18.87;51.14;98907.64;106122;1274;22576;-76
2022/09/15 11:17:54;;;;;;;6.00;2.40;;;;;;;19.28;51.24;98904.73;105845;1275;23084;-75
2022/09/15 11:20:39;;;;;;;;;;;;;;;19.55;50.67;98916.58;106066;1274;25385;-75
2022/09/15 11:23:42;;;;;;;5.50;2.10;;;;;;;19.48;50.03;98915.10;105965;1274;25254;-76
2022/09/15 11:26:18;;;;;;;4.90;2.10;;;;;;;19.35;49.88;98918.17;105948;1275;25210;-76
2022/09/15 11:28:50;;;;;;;4.10;1.80;;;;;;;19.23;50.49;98913.66;105970;1274;22614;-74
2022/09/15 11:31:33;;;;;;;4.90;1.70;;;;;;;19.30;50.63;98912.25;105803;1275;25544;-73
2022/09/15 11:34:14;;;;;;;5.30;2.00;;;;;;;19.45;50.03;98908.38;105991;1274;23201;-74
2022/09/15 11:36:52;;;;;;;4.00;1.80;;;;;;;19.51;49.90;98899.92;106093;1272;22591;-73
2022/09/15 11:39:23;;;;;;;5.00;2.10;;;;;;;19.44;50.04;98909.14;106001;1274;24415;-71
2022/09/15 11:42:05;;;;;;;7.00;2.10;;;;;;;19.31;50.17;98900.42;105987;1274;23925;-73
2022/09/15 11:44:38;;;;;;;5.60;2.70;;;;;;;19.20;50.32;98906.52;106064;1274;22557;-75
2022/09/15 11:47:38;;;;;;;6.90;1.80;;;;;;;19.05;49.88;98917.13;105996;1275;25830;-76
2022/09/15 11:50:44;;;;;;;3.00;2.00;;;;;;;18.84;49.79;98907.28;106069;1274;22701;-76
2022/09/15 11:53:26;;;;;;;3.70;1.30;;;;;;;18.79;50.33;98904.06;106085;1274;22757;-78